Campanya meteocatpedra

Dades EMA Cunit

?
?
Resum diari 22:30 TU
Dades diàries de l'estació meteorològica
Temperatura mitjana 20.8 °C
Temperatura màxima 26.5 °C 13:54 TU
Temperatura mínima 14.6 °C 4:54 TU
Humitat relativa mitjana 65%
Precipitació acumulada 0.0 mm
Ratxa màxima del vent (10 m) 27.4 km/h - 252º 15:27 TU
Pressió atmosfèrica mitjana 1019.4 hPa
Irradiació solar global 29.5 MJ/m2

El tram horari està expressat en Temps Universal (TU). Cal sumar una hora en horari d'hivern i dues en horari d'estiu per passar a l'hora oficial.

Cunit

Metadades estació meteorol´gica
Municipi Cunit
Comarca Baix Penedès
Altitud 17 m
Data alta 27.06.2006
Estat actual Operativa
Dades de període
Període
TU
TM
°C
TX
°C
TN
°C
HRM
%
PPT
mm
VVM (10 m)
km/h
DVM (10 m)
graus
VVX (10 m)
km/h
PM
hPa
RS
W/m2
00:00 - 00:30 15.3 15.4 15.0 85 0.0 6.5 347 8.6 1020.6 0
00:30 - 01:00 15.0 15.1 14.9 86 0.0 5.8 350 7.9 1020.5 0
01:00 - 01:30 14.9 14.9 14.8 86 0.0 6.1 349 8.3 1020.3 0
01:30 - 02:00 15.1 15.5 14.8 84 0.0 6.1 355 9.7 1020.1 0
02:00 - 02:30 15.4 15.6 14.8 83 0.0 5.0 355 7.6 1020.2 0
02:30 - 03:00 14.9 15.2 14.8 85 0.0 5.8 354 9.4 1020.2 0
03:00 - 03:30 15.2 15.3 15.1 83 0.0 6.5 351 9.0 1020.2 0
03:30 - 04:00 15.3 15.4 15.2 81 0.0 6.1 351 8.6 1020.0 0
04:00 - 04:30 15.2 15.5 14.8 81 0.0 6.1 349 8.3 1019.9 0
04:30 - 05:00 14.8 15.0 14.6 82 0.0 6.1 351 9.7 1020.0 11
05:00 - 05:30 15.5 16.3 14.9 80 0.0 3.2 1 6.1 1020.2 68
05:30 - 06:00 17.4 18.6 16.4 75 0.0 1.8 352 5.0 1020.3 158
06:00 - 06:30 20.3 21.3 18.7 65 0.0 0.4 140 3.2 1020.3 251
06:30 - 07:00 22.4 23.3 21.4 56 0.0 3.2 128 6.8 1020.3 347
07:00 - 07:30 23.3 23.8 22.5 54 0.0 4.7 163 8.6 1020.3 444
07:30 - 08:00 22.8 23.1 22.4 56 0.0 5.4 174 9.4 1020.4 536
08:00 - 08:30 23.9 24.6 23.0 54 0.0 5.8 215 14.0 1020.3 623
08:30 - 09:00 23.9 24.3 23.4 55 0.0 9.4 224 16.2 1020.3 704
09:00 - 09:30 24.2 25.0 23.6 57 0.0 9.0 226 16.6 1020.3 775
09:30 - 10:00 24.5 25.3 24.1 57 0.0 9.7 219 19.4 1020.2 814
10:00 - 10:30 25.1 25.6 24.3 54 0.0 10.4 234 19.1 1020.1 881
10:30 - 11:00 24.4 25.2 23.9 58 0.0 11.9 222 20.2 1019.9 911
11:00 - 11:30 24.8 25.3 24.3 58 0.0 10.8 226 19.8 1019.8 944
11:30 - 12:00 25.2 25.9 24.5 55 0.0 13.0 247 26.6 1019.7 958
12:00 - 12:30 24.6 25.0 24.0 57 0.0 13.7 247 24.8 1019.8 958
12:30 - 13:00 24.6 25.0 24.3 58 0.0 13.0 255 24.5 1019.7 940
13:00 - 13:30 25.2 25.7 24.4 56 0.0 9.7 262 20.2 1019.5 909
13:30 - 14:00 25.9 26.5 25.3 53 0.0 10.1 236 20.2 1019.2 868
14:00 - 14:30 25.0 25.7 24.5 56 0.0 11.5 242 22.0 1019.0 816
14:30 - 15:00 25.0 25.5 23.9 58 0.0 11.9 237 25.2 1018.9 747
15:00 - 15:30 24.1 25.0 23.8 66 0.0 13.0 252 27.4 1018.8 666
15:30 - 16:00 24.5 25.0 23.8 60 0.0 11.5 263 21.2 1018.5 583
16:00 - 16:30 25.0 25.8 24.4 53 0.0 9.7 266 22.0 1018.3 494
16:30 - 17:00 25.4 26.0 25.0 44 0.0 11.5 268 20.5 1018.0 400
17:00 - 17:30 25.2 25.6 24.9 43 0.0 8.6 252 19.1 1018.0 303
17:30 - 18:00 24.2 24.9 23.6 48 0.0 10.1 256 24.1 1017.9 204
18:00 - 18:30 23.2 23.5 22.9 55 0.0 10.4 266 22.0 1018.1 110
18:30 - 19:00 22.5 22.9 22.3 58 0.0 9.0 268 20.2 1018.1 27
19:00 - 19:30 21.9 22.4 21.0 59 0.0 3.6 297 11.9 1018.1 1
19:30 - 20:00 19.8 20.8 19.3 66 0.0 2.5 335 5.0 1018.1 0
20:00 - 20:30 18.5 19.3 17.6 69 0.0 4.0 339 5.8 1018.3 0
20:30 - 21:00 17.4 17.6 17.2 71 0.0 3.6 352 6.1 1018.5 0
21:00 - 21:30 16.8 17.3 16.6 72 0.0 5.0 349 7.2 1018.5 0
21:30 - 22:00 16.6 16.8 16.3 73 0.0 6.1 351 7.9 1018.3 0
22:00 - 22:30 15.9 16.2 15.6 75 0.0 5.8 352 7.2 1018.3 0
22:30 - 23:00 15.6 15.9 15.3 77 0.0 6.1 349 8.6 1018.1 0

Les dades en taronja només han passat un control de qualitat automàtic. Resta pendent la seva validació definitiva.